VJH587N VTSM-VTSP
Flight info
| Callsign | VJH587N |
|---|---|
| Flight time | 0h 40m |
| Altitude | 26000 |
| Route | DORNA1A DORNA W32 SAPUD Y8 SAVSA SAVSA1C |
| Aircraft | E190/M-SDE1E2E3FGHIJ1J3J4J7P2RWXY/LB1D1G1 |
Departure
| Time | 2026-04-26 19:18 |
|---|---|
| Airport | Samui International Airport (VTSM) |
Arrival
| Time | 2026-04-26 19:59 |
|---|---|
| Airport | Phuket International Airport (VTSP) |
| Time | Latitude | Longitude | Altitude | Speed | Heading |
|---|---|---|---|---|---|
| 2026-04-26 18:59 | 9.55238 | 100.06325 | 80 ft | 0 kts | 83° |
| 2026-04-26 19:12 | 9.55238 | 100.06324 | 80 ft | 0 kts | 83° |
| 2026-04-26 19:12 | 9.55236 | 100.06310 | 79 ft | 2 kts | 83° |
| 2026-04-26 19:12 | 9.55235 | 100.06295 | 78 ft | 2 kts | 83° |
| 2026-04-26 19:12 | 9.55233 | 100.06284 | 77 ft | 0 kts | 83° |
| 2026-04-26 19:15 | 9.55237 | 100.06288 | 77 ft | 2 kts | 41° |
| 2026-04-26 19:15 | 9.55268 | 100.06284 | 77 ft | 9 kts | 339° |
| 2026-04-26 19:16 | 9.55301 | 100.06220 | 74 ft | 11 kts | 294° |
| 2026-04-26 19:16 | 9.55379 | 100.06189 | 75 ft | 12 kts | 354° |
| 2026-04-26 19:16 | 9.55470 | 100.06181 | 76 ft | 13 kts | 355° |
| 2026-04-26 19:16 | 9.55565 | 100.06174 | 76 ft | 14 kts | 356° |
| 2026-04-26 19:17 | 9.55665 | 100.06192 | 76 ft | 14 kts | 0° |
| 2026-04-26 19:17 | 9.55696 | 100.06155 | 75 ft | 6 kts | 196° |
| 2026-04-26 19:17 | 9.55647 | 100.06162 | 75 ft | 7 kts | 173° |
| 2026-04-26 19:17 | 9.55567 | 100.06171 | 76 ft | 34 kts | 174° |
| 2026-04-26 19:18 | 9.54977 | 100.06230 | 72 ft | 130 kts | 173° |
| 2026-04-26 19:18 | 9.53972 | 100.06349 | 637 ft | 154 kts | 168° |
| 2026-04-26 19:18 | 9.52885 | 100.06576 | 1541 ft | 164 kts | 167° |
| 2026-04-26 19:18 | 9.51761 | 100.06859 | 2240 ft | 180 kts | 156° |
| 2026-04-26 19:19 | 9.50513 | 100.07376 | 2761 ft | 210 kts | 155° |
| 2026-04-26 19:19 | 9.49112 | 100.07986 | 3536 ft | 229 kts | 154° |
| 2026-04-26 19:19 | 9.47605 | 100.08478 | 4629 ft | 234 kts | 177° |
| 2026-04-26 19:19 | 9.46081 | 100.07996 | 5651 ft | 244 kts | 213° |
| 2026-04-26 19:20 | 9.45008 | 100.06562 | 6227 ft | 273 kts | 249° |
| 2026-04-26 19:20 | 9.44625 | 100.05328 | 6660 ft | 286 kts | 251° |
| 2026-04-26 19:20 | 9.43759 | 100.02715 | 7801 ft | 300 kts | 249° |
| 2026-04-26 19:20 | 9.43055 | 100.00735 | 8788 ft | 303 kts | 249° |
| 2026-04-26 19:21 | 9.42327 | 99.98742 | 9769 ft | 305 kts | 249° |
| 2026-04-26 19:21 | 9.41589 | 99.96741 | 10672 ft | 309 kts | 249° |
| 2026-04-26 19:21 | 9.40823 | 99.94675 | 11381 ft | 319 kts | 249° |
| 2026-04-26 19:21 | 9.40161 | 99.92509 | 11969 ft | 333 kts | 264° |
| 2026-04-26 19:22 | 9.40261 | 99.90127 | 12598 ft | 344 kts | 276° |
| 2026-04-26 19:22 | 9.40519 | 99.87711 | 13368 ft | 349 kts | 276° |
| 2026-04-26 19:22 | 9.40775 | 99.85278 | 14214 ft | 352 kts | 276° |
| 2026-04-26 19:22 | 9.41033 | 99.82816 | 15045 ft | 354 kts | 277° |
| 2026-04-26 19:23 | 9.41290 | 99.80346 | 15848 ft | 356 kts | 277° |
| 2026-04-26 19:23 | 9.41488 | 99.77872 | 16590 ft | 360 kts | 268° |
| 2026-04-26 19:23 | 9.40875 | 99.75407 | 17274 ft | 366 kts | 247° |
| 2026-04-26 19:23 | 9.39817 | 99.73041 | 17956 ft | 371 kts | 246° |
| 2026-04-26 19:24 | 9.38742 | 99.70653 | 18601 ft | 376 kts | 246° |
| 2026-04-26 19:24 | 9.37653 | 99.68233 | 19223 ft | 382 kts | 246° |
| 2026-04-26 19:24 | 9.35427 | 99.63291 | 20426 ft | 393 kts | 245° |
| 2026-04-26 19:25 | 9.34284 | 99.60751 | 21027 ft | 398 kts | 245° |
| 2026-04-26 19:25 | 9.33529 | 99.59075 | 21415 ft | 401 kts | 245° |
| 2026-04-26 19:25 | 9.31974 | 99.55624 | 22167 ft | 408 kts | 245° |
| 2026-04-26 19:25 | 9.30790 | 99.52997 | 22725 ft | 412 kts | 245° |
| 2026-04-26 19:26 | 9.29597 | 99.50352 | 23316 ft | 416 kts | 245° |
| 2026-04-26 19:26 | 9.28406 | 99.47710 | 23917 ft | 418 kts | 245° |
| 2026-04-26 19:26 | 9.27192 | 99.45019 | 24504 ft | 421 kts | 245° |
| 2026-04-26 19:26 | 9.25979 | 99.42329 | 25024 ft | 423 kts | 245° |
| 2026-04-26 19:27 | 9.24766 | 99.39640 | 24899 ft | 419 kts | 245° |
| 2026-04-26 19:27 | 9.23556 | 99.36960 | 24916 ft | 422 kts | 245° |
| 2026-04-26 19:27 | 9.22324 | 99.34231 | 24917 ft | 425 kts | 245° |
| 2026-04-26 19:27 | 9.21090 | 99.31498 | 24912 ft | 425 kts | 245° |
| 2026-04-26 19:28 | 9.19865 | 99.28786 | 24912 ft | 424 kts | 245° |
| 2026-04-26 19:28 | 9.18636 | 99.26064 | 24912 ft | 425 kts | 245° |
| 2026-04-26 19:28 | 9.17409 | 99.23350 | 24912 ft | 425 kts | 245° |
| 2026-04-26 19:28 | 9.16187 | 99.20647 | 24916 ft | 426 kts | 245° |
| 2026-04-26 19:29 | 9.14945 | 99.17899 | 24921 ft | 426 kts | 245° |
| 2026-04-26 19:29 | 9.13720 | 99.15203 | 24924 ft | 424 kts | 243° |
| 2026-04-26 19:29 | 9.11980 | 99.12820 | 24942 ft | 423 kts | 222° |
| 2026-04-26 19:29 | 9.09748 | 99.10886 | 24948 ft | 423 kts | 218° |
| 2026-04-26 19:30 | 9.07452 | 99.08987 | 24937 ft | 422 kts | 218° |
| 2026-04-26 19:30 | 9.05167 | 99.07108 | 24936 ft | 421 kts | 218° |
| 2026-04-26 19:30 | 9.02884 | 99.05237 | 24937 ft | 422 kts | 217° |
| 2026-04-26 19:30 | 9.01362 | 99.03990 | 24936 ft | 423 kts | 217° |
| 2026-04-26 19:31 | 8.98328 | 99.01505 | 24929 ft | 423 kts | 217° |
| 2026-04-26 19:31 | 8.96038 | 98.99630 | 24924 ft | 423 kts | 218° |
| 2026-04-26 19:31 | 8.93740 | 98.97749 | 24922 ft | 424 kts | 218° |
| 2026-04-26 19:31 | 8.91442 | 98.95867 | 24922 ft | 423 kts | 218° |
| 2026-04-26 19:32 | 8.89168 | 98.94006 | 24922 ft | 422 kts | 218° |
| 2026-04-26 19:32 | 8.86865 | 98.92122 | 24922 ft | 423 kts | 218° |
| 2026-04-26 19:32 | 8.84604 | 98.90272 | 24922 ft | 421 kts | 218° |
| 2026-04-26 19:32 | 8.82310 | 98.88396 | 24922 ft | 422 kts | 218° |
| 2026-04-26 19:33 | 8.80025 | 98.86528 | 24921 ft | 421 kts | 217° |
| 2026-04-26 19:33 | 8.77735 | 98.84663 | 24920 ft | 422 kts | 217° |
| 2026-04-26 19:33 | 8.75454 | 98.82806 | 24918 ft | 421 kts | 217° |
| 2026-04-26 19:33 | 8.73167 | 98.80946 | 24914 ft | 423 kts | 217° |
| 2026-04-26 19:34 | 8.70857 | 98.79067 | 24915 ft | 422 kts | 217° |
| 2026-04-26 19:34 | 8.68573 | 98.77208 | 24916 ft | 422 kts | 217° |
| 2026-04-26 19:34 | 8.66298 | 98.75357 | 24918 ft | 422 kts | 217° |
| 2026-04-26 19:34 | 8.64005 | 98.73492 | 24916 ft | 423 kts | 217° |
| 2026-04-26 19:35 | 8.61702 | 98.71620 | 24914 ft | 423 kts | 217° |
| 2026-04-26 19:35 | 8.59398 | 98.69746 | 24913 ft | 423 kts | 217° |
| 2026-04-26 19:35 | 8.57129 | 98.67902 | 24911 ft | 422 kts | 217° |
| 2026-04-26 19:35 | 8.54822 | 98.66026 | 24910 ft | 423 kts | 217° |
| 2026-04-26 19:36 | 8.52541 | 98.64173 | 24912 ft | 422 kts | 217° |
| 2026-04-26 19:36 | 8.51037 | 98.62890 | 24904 ft | 423 kts | 224° |
| 2026-04-26 19:36 | 8.48810 | 98.59632 | 24933 ft | 425 kts | 239° |
| 2026-04-26 19:36 | 8.47318 | 98.57039 | 24916 ft | 425 kts | 239° |
| 2026-04-26 19:37 | 8.45824 | 98.54441 | 24910 ft | 426 kts | 239° |
| 2026-04-26 19:37 | 8.44337 | 98.51859 | 24908 ft | 425 kts | 239° |
| 2026-04-26 19:37 | 8.42865 | 98.49301 | 24908 ft | 426 kts | 239° |
| 2026-04-26 19:37 | 8.41371 | 98.46706 | 24907 ft | 426 kts | 239° |
| 2026-04-26 19:38 | 8.39880 | 98.44119 | 24906 ft | 426 kts | 239° |
| 2026-04-26 19:38 | 8.38394 | 98.41537 | 24906 ft | 426 kts | 239° |
| 2026-04-26 19:38 | 8.36897 | 98.38939 | 24904 ft | 425 kts | 239° |
| 2026-04-26 19:38 | 8.35427 | 98.36388 | 24905 ft | 425 kts | 239° |
| 2026-04-26 19:39 | 8.33929 | 98.33788 | 24901 ft | 426 kts | 239° |
| 2026-04-26 19:39 | 8.32451 | 98.31225 | 24896 ft | 425 kts | 239° |
| 2026-04-26 19:39 | 8.30952 | 98.28625 | 24896 ft | 425 kts | 239° |
| 2026-04-26 19:39 | 8.29467 | 98.26049 | 24896 ft | 425 kts | 239° |
| 2026-04-26 19:40 | 8.27984 | 98.23479 | 24895 ft | 425 kts | 239° |
| 2026-04-26 19:40 | 8.26485 | 98.20879 | 24894 ft | 425 kts | 239° |
| 2026-04-26 19:40 | 8.25002 | 98.18309 | 24893 ft | 425 kts | 239° |
| 2026-04-26 19:40 | 8.23514 | 98.15730 | 24890 ft | 426 kts | 239° |
| 2026-04-26 19:41 | 8.22024 | 98.13148 | 24663 ft | 426 kts | 239° |
| 2026-04-26 19:41 | 8.20538 | 98.10565 | 24289 ft | 426 kts | 240° |
| 2026-04-26 19:41 | 8.19557 | 98.07812 | 23795 ft | 420 kts | 256° |
| 2026-04-26 19:41 | 8.18946 | 98.05956 | 23460 ft | 411 kts | 242° |
| 2026-04-26 19:42 | 8.16855 | 98.02886 | 22844 ft | 395 kts | 240° |
| 2026-04-26 19:42 | 8.16027 | 98.00287 | 22373 ft | 387 kts | 265° |
| 2026-04-26 19:42 | 8.15968 | 97.97629 | 21937 ft | 378 kts | 270° |
| 2026-04-26 19:42 | 8.15974 | 97.95004 | 21463 ft | 371 kts | 270° |
| 2026-04-26 19:43 | 8.15977 | 97.92404 | 20986 ft | 365 kts | 270° |
| 2026-04-26 19:43 | 8.15976 | 97.89905 | 20521 ft | 359 kts | 270° |
| 2026-04-26 19:43 | 8.15972 | 97.87403 | 20051 ft | 354 kts | 270° |
| 2026-04-26 19:43 | 8.15963 | 97.84944 | 19582 ft | 349 kts | 270° |
| 2026-04-26 19:44 | 8.15952 | 97.82503 | 19108 ft | 344 kts | 270° |
| 2026-04-26 19:44 | 8.15938 | 97.80128 | 18642 ft | 340 kts | 270° |
| 2026-04-26 19:44 | 8.15919 | 97.77753 | 18171 ft | 336 kts | 270° |
| 2026-04-26 19:44 | 8.15896 | 97.75410 | 17704 ft | 332 kts | 270° |
| 2026-04-26 19:45 | 8.15871 | 97.73094 | 17151 ft | 332 kts | 270° |
| 2026-04-26 19:45 | 8.15843 | 97.70778 | 16576 ft | 332 kts | 270° |
| 2026-04-26 19:45 | 8.15819 | 97.68461 | 16001 ft | 331 kts | 270° |
| 2026-04-26 19:45 | 8.15585 | 97.66183 | 15417 ft | 331 kts | 251° |
| 2026-04-26 19:46 | 8.14368 | 97.64238 | 14870 ft | 327 kts | 221° |
| 2026-04-26 19:46 | 8.12419 | 97.63146 | 14328 ft | 319 kts | 191° |
| 2026-04-26 19:46 | 8.10266 | 97.63142 | 13792 ft | 311 kts | 162° |
| 2026-04-26 19:46 | 8.08432 | 97.64196 | 13251 ft | 302 kts | 131° |
| 2026-04-26 19:47 | 8.07445 | 97.65989 | 12809 ft | 292 kts | 101° |
| 2026-04-26 19:47 | 8.07320 | 97.67347 | 12557 ft | 286 kts | 90° |
| 2026-04-26 19:47 | 8.07399 | 97.69966 | 12005 ft | 280 kts | 87° |
| 2026-04-26 19:47 | 8.07482 | 97.71925 | 11578 ft | 277 kts | 88° |
| 2026-04-26 19:48 | 8.07555 | 97.73859 | 11118 ft | 275 kts | 88° |
| 2026-04-26 19:48 | 8.07624 | 97.75784 | 10644 ft | 274 kts | 88° |
| 2026-04-26 19:48 | 8.07690 | 97.77683 | 10178 ft | 273 kts | 88° |
| 2026-04-26 19:48 | 8.07756 | 97.79597 | 9706 ft | 272 kts | 88° |
| 2026-04-26 19:49 | 8.07821 | 97.81506 | 9234 ft | 271 kts | 88° |
| 2026-04-26 19:49 | 8.07885 | 97.83379 | 8768 ft | 270 kts | 88° |
| 2026-04-26 19:49 | 8.07949 | 97.85270 | 8294 ft | 269 kts | 88° |
| 2026-04-26 19:49 | 8.08012 | 97.87146 | 7822 ft | 267 kts | 88° |
| 2026-04-26 19:50 | 8.08075 | 97.89011 | 7351 ft | 266 kts | 88° |
| 2026-04-26 19:50 | 8.08138 | 97.90880 | 6876 ft | 265 kts | 88° |
| 2026-04-26 19:50 | 8.08200 | 97.92726 | 6404 ft | 263 kts | 88° |
| 2026-04-26 19:50 | 8.08262 | 97.94556 | 5937 ft | 262 kts | 88° |
| 2026-04-26 19:51 | 8.08323 | 97.96374 | 5467 ft | 260 kts | 88° |
| 2026-04-26 19:51 | 8.08384 | 97.98193 | 4986 ft | 259 kts | 88° |
| 2026-04-26 19:51 | 8.08444 | 98.00005 | 4505 ft | 258 kts | 88° |
| 2026-04-26 19:51 | 8.08508 | 98.01799 | 4123 ft | 252 kts | 86° |
| 2026-04-26 19:52 | 8.08665 | 98.03496 | 4073 ft | 234 kts | 85° |
| 2026-04-26 19:52 | 8.08819 | 98.05077 | 4031 ft | 218 kts | 85° |
| 2026-04-26 19:52 | 8.08962 | 98.06550 | 3987 ft | 206 kts | 85° |
| 2026-04-26 19:52 | 8.09100 | 98.07970 | 3972 ft | 204 kts | 85° |
| 2026-04-26 19:53 | 8.09234 | 98.09346 | 3923 ft | 190 kts | 85° |
| 2026-04-26 19:53 | 8.09356 | 98.10628 | 3736 ft | 181 kts | 85° |
| 2026-04-26 19:53 | 8.09473 | 98.11880 | 3495 ft | 175 kts | 85° |
| 2026-04-26 19:53 | 8.09584 | 98.13075 | 3276 ft | 169 kts | 85° |
| 2026-04-26 19:54 | 8.09692 | 98.14247 | 3058 ft | 164 kts | 85° |
| 2026-04-26 19:54 | 8.09795 | 98.15353 | 2855 ft | 153 kts | 85° |
| 2026-04-26 19:54 | 8.09891 | 98.16388 | 2744 ft | 145 kts | 85° |
| 2026-04-26 19:54 | 8.09984 | 98.17396 | 2533 ft | 145 kts | 85° |
| 2026-04-26 19:55 | 8.10077 | 98.18392 | 2318 ft | 138 kts | 85° |
| 2026-04-26 19:55 | 8.10164 | 98.19336 | 2142 ft | 134 kts | 85° |
| 2026-04-26 19:55 | 8.10251 | 98.20274 | 1984 ft | 134 kts | 85° |
| 2026-04-26 19:55 | 8.10337 | 98.21206 | 1822 ft | 133 kts | 85° |
| 2026-04-26 19:56 | 8.10420 | 98.22091 | 1610 ft | 119 kts | 85° |
| 2026-04-26 19:56 | 8.10496 | 98.22891 | 1457 ft | 114 kts | 85° |
| 2026-04-26 19:56 | 8.10572 | 98.23701 | 1336 ft | 115 kts | 85° |
| 2026-04-26 19:56 | 8.10649 | 98.24523 | 1207 ft | 116 kts | 84° |
| 2026-04-26 19:57 | 8.10726 | 98.25340 | 1057 ft | 118 kts | 84° |
| 2026-04-26 19:57 | 8.10804 | 98.26159 | 900 ft | 119 kts | 85° |
| 2026-04-26 19:57 | 8.10882 | 98.26996 | 741 ft | 119 kts | 85° |
| 2026-04-26 19:57 | 8.10961 | 98.27830 | 581 ft | 120 kts | 84° |
| 2026-04-26 19:58 | 8.11040 | 98.28660 | 418 ft | 121 kts | 85° |
| 2026-04-26 19:58 | 8.11119 | 98.29506 | 236 ft | 121 kts | 85° |
| 2026-04-26 19:58 | 8.11198 | 98.30363 | 62 ft | 122 kts | 86° |
| 2026-04-26 19:58 | 8.11271 | 98.31152 | 43 ft | 93 kts | 84° |
| 2026-04-26 19:59 | 8.11312 | 98.31602 | 63 ft | 44 kts | 84° |
| 2026-04-26 19:59 | 8.11317 | 98.31786 | 75 ft | 15 kts | 98° |
| 2026-04-26 19:59 | 8.11329 | 98.31785 | 75 ft | 6 kts | 259° |
| 2026-04-26 19:59 | 8.11323 | 98.31710 | 71 ft | 14 kts | 264° |
| 2026-04-26 20:00 | 8.11309 | 98.31588 | 62 ft | 21 kts | 265° |
| 2026-04-26 20:00 | 8.11296 | 98.31420 | 53 ft | 26 kts | 263° |
| 2026-04-26 20:00 | 8.11278 | 98.31242 | 46 ft | 27 kts | 265° |
| 2026-04-26 20:00 | 8.11258 | 98.31039 | 41 ft | 30 kts | 264° |
| 2026-04-26 20:01 | 8.11238 | 98.30821 | 38 ft | 32 kts | 264° |
| 2026-04-26 20:01 | 8.11217 | 98.30624 | 33 ft | 25 kts | 264° |
| 2026-04-26 20:01 | 8.11169 | 98.30523 | 31 ft | 16 kts | 204° |
| 2026-04-26 20:01 | 8.11053 | 98.30499 | 33 ft | 17 kts | 191° |
| 2026-04-26 20:02 | 8.10933 | 98.30467 | 33 ft | 18 kts | 195° |
| 2026-04-26 20:02 | 8.10805 | 98.30431 | 33 ft | 19 kts | 195° |
| 2026-04-26 20:02 | 8.10671 | 98.30393 | 33 ft | 20 kts | 196° |
| 2026-04-26 20:02 | 8.10577 | 98.30369 | 33 ft | 16 kts | 194° |
| 2026-04-26 20:03 | 8.10459 | 98.30341 | 34 ft | 7 kts | 195° |
| 2026-04-26 20:03 | 8.10426 | 98.30350 | 34 ft | 5 kts | 142° |
| 2026-04-26 20:03 | 8.10408 | 98.30388 | 35 ft | 6 kts | 105° |
| 2026-04-26 20:03 | 8.10401 | 98.30415 | 36 ft | 0 kts | 105° |